George, Iowa
Current Conditions -  °F | °C
As of 5:35 PM on Saturday 25 Oct 2014 (Local Time) from KSHL Reporting Station
Clear Clear  
Wind Chill: 64°   Ceiling: Unl
Heat Index: 64°   Visibility: 10mi
Dew Point: 32°   Wind: 6mph
Humidity: 30%   Direction: 40°NE
Pressure: 30.07"   Gusts: NA
Location:  43.34°N, 96°W
Report Text: KSHL 252235Z AUTO 04005KT 10SM CLR 18/M00 A3007 RMK AO2
Loading
Personal Weather Stations






























Interactive Weather Map
Tropical Storm Tracking
New forecast layout! Learn more

10-Day Weather Forecast

Advertisements
Track Severe Weather on mobile